sensor_id;sensor_type;location;lat;lon;timestamp;P1;durP1;ratioP1;P2;durP2;ratioP2
42124;SDS011;27787;44.594;11.046;2023-08-17T00:00:56;9.75;;;8.65;;
42124;SDS011;27787;44.594;11.046;2023-08-17T00:03:40;13.32;;;9.00;;
42124;SDS011;27787;44.594;11.046;2023-08-17T00:06:24;12.60;;;9.10;;
42124;SDS011;27787;44.594;11.046;2023-08-17T00:09:09;10.05;;;9.02;;
42124;SDS011;27787;44.594;11.046;2023-08-17T00:11:53;12.23;;;9.20;;
42124;SDS011;27787;44.594;11.046;2023-08-17T00:14:38;11.35;;;9.80;;
42124;SDS011;27787;44.594;11.046;2023-08-17T00:17:22;12.65;;;9.48;;
42124;SDS011;27787;44.594;11.046;2023-08-17T00:20:06;11.85;;;9.70;;
42124;SDS011;27787;44.594;11.046;2023-08-17T00:22:53;11.07;;;9.85;;
42124;SDS011;27787;44.594;11.046;2023-08-17T00:25:37;11.27;;;9.57;;
42124;SDS011;27787;44.594;11.046;2023-08-17T00:28:21;11.32;;;9.52;;
42124;SDS011;27787;44.594;11.046;2023-08-17T00:31:05;13.57;;;10.50;;
42124;SDS011;27787;44.594;11.046;2023-08-17T00:33:49;12.75;;;10.13;;
42124;SDS011;27787;44.594;11.046;2023-08-17T00:36:33;11.25;;;10.00;;
42124;SDS011;27787;44.594;11.046;2023-08-17T00:39:17;12.98;;;9.80;;
42124;SDS011;27787;44.594;11.046;2023-08-17T00:42:02;12.88;;;9.68;;
42124;SDS011;27787;44.594;11.046;2023-08-17T00:44:46;12.85;;;10.20;;
42124;SDS011;27787;44.594;11.046;2023-08-17T00:47:30;11.73;;;10.18;;
42124;SDS011;27787;44.594;11.046;2023-08-17T00:50:15;13.65;;;10.48;;
42124;SDS011;27787;44.594;11.046;2023-08-17T00:52:59;11.90;;;10.10;;
42124;SDS011;27787;44.594;11.046;2023-08-17T00:55:45;13.45;;;11.38;;
42124;SDS011;27787;44.594;11.046;2023-08-17T00:58:30;14.13;;;10.30;;
42124;SDS011;27787;44.594;11.046;2023-08-17T01:01:15;12.60;;;10.90;;
42124;SDS011;27787;44.594;11.046;2023-08-17T01:04:00;12.10;;;10.27;;
42124;SDS011;27787;44.594;11.046;2023-08-17T01:06:43;15.77;;;10.52;;
42124;SDS011;27787;44.594;11.046;2023-08-17T01:09:28;14.27;;;11.90;;
42124;SDS011;27787;44.594;11.046;2023-08-17T01:12:29;12.93;;;10.98;;
42124;SDS011;27787;44.594;11.046;2023-08-17T01:15:17;17.75;;;11.13;;
42124;SDS011;27787;44.594;11.046;2023-08-17T01:20:55;12.77;;;10.10;;
42124;SDS011;27787;44.594;11.046;2023-08-17T01:23:40;14.40;;;10.50;;
42124;SDS011;27787;44.594;11.046;2023-08-17T01:26:25;13.93;;;10.05;;
42124;SDS011;27787;44.594;11.046;2023-08-17T01:29:11;10.70;;;9.35;;
42124;SDS011;27787;44.594;11.046;2023-08-17T01:34:58;13.98;;;10.40;;
42124;SDS011;27787;44.594;11.046;2023-08-17T01:37:49;11.73;;;9.27;;
42124;SDS011;27787;44.594;11.046;2023-08-17T01:40:34;13.43;;;9.70;;
42124;SDS011;27787;44.594;11.046;2023-08-17T01:43:19;13.20;;;10.27;;
42124;SDS011;27787;44.594;11.046;2023-08-17T01:46:04;16.05;;;10.75;;
42124;SDS011;27787;44.594;11.046;2023-08-17T01:48:48;19.73;;;10.65;;
42124;SDS011;27787;44.594;11.046;2023-08-17T01:51:32;13.02;;;10.65;;
42124;SDS011;27787;44.594;11.046;2023-08-17T01:54:17;17.92;;;11.45;;
42124;SDS011;27787;44.594;11.046;2023-08-17T01:57:01;14.50;;;10.75;;
42124;SDS011;27787;44.594;11.046;2023-08-17T01:59:45;15.88;;;10.80;;
42124;SDS011;27787;44.594;11.046;2023-08-17T02:02:30;12.80;;;10.93;;
42124;SDS011;27787;44.594;11.046;2023-08-17T02:05:14;18.15;;;10.90;;
42124;SDS011;27787;44.594;11.046;2023-08-17T02:07:58;17.33;;;11.73;;
42124;SDS011;27787;44.594;11.046;2023-08-17T02:10:46;16.75;;;10.98;;
42124;SDS011;27787;44.594;11.046;2023-08-17T02:13:30;14.98;;;11.57;;
42124;SDS011;27787;44.594;11.046;2023-08-17T02:16:20;21.13;;;11.77;;
42124;SDS011;27787;44.594;11.046;2023-08-17T02:19:04;15.45;;;12.02;;
42124;SDS011;27787;44.594;11.046;2023-08-17T02:21:48;17.20;;;11.07;;
42124;SDS011;27787;44.594;11.046;2023-08-17T02:24:32;16.95;;;11.20;;
42124;SDS011;27787;44.594;11.046;2023-08-17T02:27:17;19.95;;;10.70;;
42124;SDS011;27787;44.594;11.046;2023-08-17T02:30:00;15.43;;;10.07;;
42124;SDS011;27787;44.594;11.046;2023-08-17T02:32:46;16.13;;;11.30;;
42124;SDS011;27787;44.594;11.046;2023-08-17T02:35:30;13.27;;;11.35;;
42124;SDS011;27787;44.594;11.046;2023-08-17T02:38:14;17.13;;;10.77;;
42124;SDS011;27787;44.594;11.046;2023-08-17T02:40:58;15.40;;;11.05;;
42124;SDS011;27787;44.594;11.046;2023-08-17T02:43:42;14.15;;;11.55;;
42124;SDS011;27787;44.594;11.046;2023-08-17T02:46:26;14.45;;;11.40;;
42124;SDS011;27787;44.594;11.046;2023-08-17T02:49:09;20.20;;;11.65;;
42124;SDS011;27787;44.594;11.046;2023-08-17T02:51:53;15.90;;;11.18;;
42124;SDS011;27787;44.594;11.046;2023-08-17T02:54:37;14.73;;;11.80;;
42124;SDS011;27787;44.594;11.046;2023-08-17T02:57:21;13.07;;;10.63;;
42124;SDS011;27787;44.594;11.046;2023-08-17T03:00:06;17.25;;;10.90;;
42124;SDS011;27787;44.594;11.046;2023-08-17T03:02:51;12.40;;;10.60;;
42124;SDS011;27787;44.594;11.046;2023-08-17T03:05:34;15.38;;;11.50;;
42124;SDS011;27787;44.594;11.046;2023-08-17T03:08:19;13.30;;;10.77;;
42124;SDS011;27787;44.594;11.046;2023-08-17T03:11:03;14.02;;;11.40;;
42124;SDS011;27787;44.594;11.046;2023-08-17T03:13:46;17.15;;;11.75;;
42124;SDS011;27787;44.594;11.046;2023-08-17T03:16:33;13.88;;;10.40;;
42124;SDS011;27787;44.594;11.046;2023-08-17T03:19:17;15.32;;;12.25;;
42124;SDS011;27787;44.594;11.046;2023-08-17T03:22:01;16.92;;;11.90;;
42124;SDS011;27787;44.594;11.046;2023-08-17T03:24:46;14.38;;;11.45;;
42124;SDS011;27787;44.594;11.046;2023-08-17T03:27:30;14.05;;;11.68;;
42124;SDS011;27787;44.594;11.046;2023-08-17T03:30:14;14.55;;;11.18;;
42124;SDS011;27787;44.594;11.046;2023-08-17T03:32:59;16.83;;;11.60;;
42124;SDS011;27787;44.594;11.046;2023-08-17T03:35:43;14.13;;;10.88;;
42124;SDS011;27787;44.594;11.046;2023-08-17T03:38:27;15.67;;;12.03;;
42124;SDS011;27787;44.594;11.046;2023-08-17T03:41:13;15.35;;;11.90;;
42124;SDS011;27787;44.594;11.046;2023-08-17T03:43:57;18.40;;;11.75;;
42124;SDS011;27787;44.594;11.046;2023-08-17T03:46:42;14.18;;;11.90;;
42124;SDS011;27787;44.594;11.046;2023-08-17T03:49:26;14.67;;;12.37;;
42124;SDS011;27787;44.594;11.046;2023-08-17T03:52:11;18.83;;;12.48;;
42124;SDS011;27787;44.594;11.046;2023-08-17T03:54:55;15.65;;;12.48;;
42124;SDS011;27787;44.594;11.046;2023-08-17T03:57:39;16.25;;;12.77;;
42124;SDS011;27787;44.594;11.046;2023-08-17T04:00:23;15.20;;;12.50;;
42124;SDS011;27787;44.594;11.046;2023-08-17T04:03:13;15.27;;;12.93;;
42124;SDS011;27787;44.594;11.046;2023-08-17T04:05:58;16.60;;;13.98;;
42124;SDS011;27787;44.594;11.046;2023-08-17T04:08:48;17.58;;;12.68;;
42124;SDS011;27787;44.594;11.046;2023-08-17T04:11:34;20.88;;;13.68;;
42124;SDS011;27787;44.594;11.046;2023-08-17T04:14:20;14.90;;;12.68;;
42124;SDS011;27787;44.594;11.046;2023-08-17T04:17:05;19.95;;;13.73;;
42124;SDS011;27787;44.594;11.046;2023-08-17T04:19:50;16.30;;;12.88;;
42124;SDS011;27787;44.594;11.046;2023-08-17T04:22:35;18.30;;;13.60;;
42124;SDS011;27787;44.594;11.046;2023-08-17T04:25:19;18.10;;;13.25;;
42124;SDS011;27787;44.594;11.046;2023-08-17T04:28:03;19.30;;;13.75;;
42124;SDS011;27787;44.594;11.046;2023-08-17T04:30:49;16.95;;;13.52;;
42124;SDS011;27787;44.594;11.046;2023-08-17T04:33:34;14.63;;;12.80;;
42124;SDS011;27787;44.594;11.046;2023-08-17T04:36:18;15.40;;;12.97;;
42124;SDS011;27787;44.594;11.046;2023-08-17T04:39:02;15.80;;;12.55;;
42124;SDS011;27787;44.594;11.046;2023-08-17T04:41:49;19.85;;;13.15;;
42124;SDS011;27787;44.594;11.046;2023-08-17T04:44:38;18.30;;;13.20;;
42124;SDS011;27787;44.594;11.046;2023-08-17T04:47:22;18.52;;;12.32;;
42124;SDS011;27787;44.594;11.046;2023-08-17T04:50:06;14.23;;;12.50;;
42124;SDS011;27787;44.594;11.046;2023-08-17T04:52:52;19.88;;;12.75;;
42124;SDS011;27787;44.594;11.046;2023-08-17T04:55:36;13.07;;;10.97;;
42124;SDS011;27787;44.594;11.046;2023-08-17T04:58:21;16.10;;;10.85;;
42124;SDS011;27787;44.594;11.046;2023-08-17T05:01:06;16.17;;;12.07;;
42124;SDS011;27787;44.594;11.046;2023-08-17T05:03:50;17.15;;;13.63;;
42124;SDS011;27787;44.594;11.046;2023-08-17T05:06:35;15.20;;;12.18;;
42124;SDS011;27787;44.594;11.046;2023-08-17T05:09:22;14.98;;;12.73;;
42124;SDS011;27787;44.594;11.046;2023-08-17T05:12:06;14.70;;;11.63;;
42124;SDS011;27787;44.594;11.046;2023-08-17T05:14:50;17.13;;;11.83;;
42124;SDS011;27787;44.594;11.046;2023-08-17T05:17:34;15.02;;;11.93;;
42124;SDS011;27787;44.594;11.046;2023-08-17T05:20:20;15.05;;;11.93;;
42124;SDS011;27787;44.594;11.046;2023-08-17T05:23:04;13.48;;;11.82;;
42124;SDS011;27787;44.594;11.046;2023-08-17T05:25:48;14.15;;;12.20;;
42124;SDS011;27787;44.594;11.046;2023-08-17T05:28:33;13.80;;;11.40;;
42124;SDS011;27787;44.594;11.046;2023-08-17T05:31:19;16.42;;;12.27;;
42124;SDS011;27787;44.594;11.046;2023-08-17T05:34:05;17.25;;;12.73;;
42124;SDS011;27787;44.594;11.046;2023-08-17T05:36:51;14.48;;;11.60;;
42124;SDS011;27787;44.594;11.046;2023-08-17T05:39:35;13.90;;;11.45;;
42124;SDS011;27787;44.594;11.046;2023-08-17T05:42:19;13.52;;;11.20;;
42124;SDS011;27787;44.594;11.046;2023-08-17T05:45:04;15.35;;;11.57;;
42124;SDS011;27787;44.594;11.046;2023-08-17T05:47:49;12.23;;;10.65;;
42124;SDS011;27787;44.594;11.046;2023-08-17T05:50:33;19.98;;;11.13;;
42124;SDS011;27787;44.594;11.046;2023-08-17T05:53:17;13.95;;;11.00;;
42124;SDS011;27787;44.594;11.046;2023-08-17T05:56:01;13.43;;;10.65;;
42124;SDS011;27787;44.594;11.046;2023-08-17T05:58:46;16.15;;;11.45;;
42124;SDS011;27787;44.594;11.046;2023-08-17T06:01:30;15.98;;;10.63;;
42124;SDS011;27787;44.594;11.046;2023-08-17T06:04:15;11.95;;;10.07;;
42124;SDS011;27787;44.594;11.046;2023-08-17T06:06:59;15.68;;;11.30;;
42124;SDS011;27787;44.594;11.046;2023-08-17T06:09:42;12.65;;;10.48;;
42124;SDS011;27787;44.594;11.046;2023-08-17T06:12:27;13.52;;;10.48;;
42124;SDS011;27787;44.594;11.046;2023-08-17T06:15:11;13.95;;;10.88;;
42124;SDS011;27787;44.594;11.046;2023-08-17T06:17:58;20.70;;;10.55;;
42124;SDS011;27787;44.594;11.046;2023-08-17T06:20:45;11.27;;;10.07;;
42124;SDS011;27787;44.594;11.046;2023-08-17T06:23:31;12.13;;;10.07;;
42124;SDS011;27787;44.594;11.046;2023-08-17T06:26:14;13.10;;;11.20;;
42124;SDS011;27787;44.594;11.046;2023-08-17T06:29:02;19.60;;;11.32;;
42124;SDS011;27787;44.594;11.046;2023-08-17T06:31:46;12.93;;;10.50;;
42124;SDS011;27787;44.594;11.046;2023-08-17T06:34:30;13.60;;;10.68;;
42124;SDS011;27787;44.594;11.046;2023-08-17T06:37:15;14.45;;;10.77;;
42124;SDS011;27787;44.594;11.046;2023-08-17T06:39:59;13.63;;;10.32;;
42124;SDS011;27787;44.594;11.046;2023-08-17T06:42:43;12.43;;;10.30;;
42124;SDS011;27787;44.594;11.046;2023-08-17T06:45:27;18.73;;;10.93;;
42124;SDS011;27787;44.594;11.046;2023-08-17T06:48:11;12.75;;;9.75;;
42124;SDS011;27787;44.594;11.046;2023-08-17T06:50:55;12.63;;;9.90;;
42124;SDS011;27787;44.594;11.046;2023-08-17T06:53:40;10.32;;;8.80;;
42124;SDS011;27787;44.594;11.046;2023-08-17T06:56:24;12.98;;;9.73;;
42124;SDS011;27787;44.594;11.046;2023-08-17T06:59:09;12.63;;;8.52;;
42124;SDS011;27787;44.594;11.046;2023-08-17T07:01:53;13.43;;;8.57;;
42124;SDS011;27787;44.594;11.046;2023-08-17T07:04:37;11.57;;;8.63;;
42124;SDS011;27787;44.594;11.046;2023-08-17T07:07:21;11.10;;;8.07;;
42124;SDS011;27787;44.594;11.046;2023-08-17T07:10:05;13.40;;;8.82;;
42124;SDS011;27787;44.594;11.046;2023-08-17T07:12:51;10.75;;;8.15;;
42124;SDS011;27787;44.594;11.046;2023-08-17T07:15:35;12.45;;;8.38;;
42124;SDS011;27787;44.594;11.046;2023-08-17T07:18:18;9.75;;;8.02;;
42124;SDS011;27787;44.594;11.046;2023-08-17T07:21:02;11.57;;;8.80;;
42124;SDS011;27787;44.594;11.046;2023-08-17T07:23:46;11.93;;;8.73;;
42124;SDS011;27787;44.594;11.046;2023-08-17T07:26:31;11.20;;;8.35;;
42124;SDS011;27787;44.594;11.046;2023-08-17T07:29:15;13.02;;;8.77;;
42124;SDS011;27787;44.594;11.046;2023-08-17T07:31:59;16.15;;;9.45;;
42124;SDS011;27787;44.594;11.046;2023-08-17T07:34:45;12.30;;;9.20;;
42124;SDS011;27787;44.594;11.046;2023-08-17T07:37:29;12.27;;;8.82;;
42124;SDS011;27787;44.594;11.046;2023-08-17T07:40:17;13.50;;;9.57;;
42124;SDS011;27787;44.594;11.046;2023-08-17T07:43:01;11.45;;;9.38;;
42124;SDS011;27787;44.594;11.046;2023-08-17T07:45:45;13.93;;;9.90;;
42124;SDS011;27787;44.594;11.046;2023-08-17T07:48:30;11.63;;;8.68;;
42124;SDS011;27787;44.594;11.046;2023-08-17T07:51:17;10.55;;;8.35;;
42124;SDS011;27787;44.594;11.046;2023-08-17T07:54:01;14.18;;;8.65;;
42124;SDS011;27787;44.594;11.046;2023-08-17T07:56:45;13.70;;;9.30;;
42124;SDS011;27787;44.594;11.046;2023-08-17T07:59:29;13.07;;;9.00;;
42124;SDS011;27787;44.594;11.046;2023-08-17T08:02:13;11.50;;;8.55;;
42124;SDS011;27787;44.594;11.046;2023-08-17T08:04:58;13.57;;;8.98;;
42124;SDS011;27787;44.594;11.046;2023-08-17T08:07:41;13.00;;;9.93;;
42124;SDS011;27787;44.594;11.046;2023-08-17T08:10:27;11.13;;;9.00;;
42124;SDS011;27787;44.594;11.046;2023-08-17T08:13:11;11.38;;;8.55;;
42124;SDS011;27787;44.594;11.046;2023-08-17T08:15:56;13.93;;;9.43;;
42124;SDS011;27787;44.594;11.046;2023-08-17T08:18:41;14.43;;;11.27;;
42124;SDS011;27787;44.594;11.046;2023-08-17T08:21:25;19.80;;;11.27;;
42124;SDS011;27787;44.594;11.046;2023-08-17T08:24:11;14.38;;;10.57;;
42124;SDS011;27787;44.594;11.046;2023-08-17T08:26:55;15.25;;;10.23;;
42124;SDS011;27787;44.594;11.046;2023-08-17T08:29:39;14.60;;;10.02;;
42124;SDS011;27787;44.594;11.046;2023-08-17T08:32:23;14.30;;;9.93;;
42124;SDS011;27787;44.594;11.046;2023-08-17T08:35:07;12.45;;;9.63;;
42124;SDS011;27787;44.594;11.046;2023-08-17T08:37:52;13.30;;;9.05;;
42124;SDS011;27787;44.594;11.046;2023-08-17T08:40:36;10.13;;;8.60;;
42124;SDS011;27787;44.594;11.046;2023-08-17T08:43:22;13.30;;;9.05;;
42124;SDS011;27787;44.594;11.046;2023-08-17T08:46:06;13.00;;;9.70;;
42124;SDS011;27787;44.594;11.046;2023-08-17T08:48:50;13.25;;;10.82;;
42124;SDS011;27787;44.594;11.046;2023-08-17T08:51:39;12.23;;;10.00;;
42124;SDS011;27787;44.594;11.046;2023-08-17T08:54:27;15.02;;;8.85;;
42124;SDS011;27787;44.594;11.046;2023-08-17T08:57:13;10.52;;;8.63;;
42124;SDS011;27787;44.594;11.046;2023-08-17T09:02:42;12.40;;;9.65;;
42124;SDS011;27787;44.594;11.046;2023-08-17T09:08:11;15.20;;;10.60;;
42124;SDS011;27787;44.594;11.046;2023-08-17T09:10:57;16.48;;;10.77;;
42124;SDS011;27787;44.594;11.046;2023-08-17T09:13:41;12.68;;;9.95;;
42124;SDS011;27787;44.594;11.046;2023-08-17T09:16:26;13.73;;;10.25;;
42124;SDS011;27787;44.594;11.046;2023-08-17T09:19:11;14.48;;;10.82;;
42124;SDS011;27787;44.594;11.046;2023-08-17T09:21:56;16.45;;;9.98;;
42124;SDS011;27787;44.594;11.046;2023-08-17T09:24:40;11.63;;;8.93;;
42124;SDS011;27787;44.594;11.046;2023-08-17T09:27:24;13.10;;;8.77;;
42124;SDS011;27787;44.594;11.046;2023-08-17T09:30:09;13.43;;;10.98;;
42124;SDS011;27787;44.594;11.046;2023-08-17T09:32:54;14.75;;;9.98;;
42124;SDS011;27787;44.594;11.046;2023-08-17T09:35:40;14.85;;;10.98;;
42124;SDS011;27787;44.594;11.046;2023-08-17T09:38:26;11.90;;;10.32;;
42124;SDS011;27787;44.594;11.046;2023-08-17T09:41:11;21.58;;;11.40;;
42124;SDS011;27787;44.594;11.046;2023-08-17T09:43:57;15.80;;;10.30;;
42124;SDS011;27787;44.594;11.046;2023-08-17T09:46:44;17.67;;;11.52;;
42124;SDS011;27787;44.594;11.046;2023-08-17T09:49:30;20.00;;;11.77;;
42124;SDS011;27787;44.594;11.046;2023-08-17T09:52:16;14.30;;;11.55;;
42124;SDS011;27787;44.594;11.046;2023-08-17T09:55:01;16.30;;;11.63;;
42124;SDS011;27787;44.594;11.046;2023-08-17T09:57:50;18.27;;;12.88;;
42124;SDS011;27787;44.594;11.046;2023-08-17T10:00:35;16.27;;;10.98;;
42124;SDS011;27787;44.594;11.046;2023-08-17T10:03:19;18.27;;;10.32;;
42124;SDS011;27787;44.594;11.046;2023-08-17T10:06:05;22.98;;;10.98;;
42124;SDS011;27787;44.594;11.046;2023-08-17T10:08:53;16.55;;;12.63;;
42124;SDS011;27787;44.594;11.046;2023-08-17T10:11:40;14.30;;;11.23;;
42124;SDS011;27787;44.594;11.046;2023-08-17T10:14:30;14.50;;;10.55;;
42124;SDS011;27787;44.594;11.046;2023-08-17T10:17:22;15.40;;;10.88;;
42124;SDS011;27787;44.594;11.046;2023-08-17T10:20:11;12.43;;;9.93;;
42124;SDS011;27787;44.594;11.046;2023-08-17T10:23:03;19.10;;;11.10;;
42124;SDS011;27787;44.594;11.046;2023-08-17T10:25:50;17.80;;;10.48;;
42124;SDS011;27787;44.594;11.046;2023-08-17T10:28:36;15.40;;;10.50;;
42124;SDS011;27787;44.594;11.046;2023-08-17T10:31:22;13.40;;;10.55;;
42124;SDS011;27787;44.594;11.046;2023-08-17T10:34:06;13.27;;;9.93;;
42124;SDS011;27787;44.594;11.046;2023-08-17T10:36:51;14.25;;;10.00;;
42124;SDS011;27787;44.594;11.046;2023-08-17T10:39:36;12.18;;;10.00;;
42124;SDS011;27787;44.594;11.046;2023-08-17T10:42:33;15.32;;;10.82;;
42124;SDS011;27787;44.594;11.046;2023-08-17T10:45:25;12.30;;;10.35;;
42124;SDS011;27787;44.594;11.046;2023-08-17T10:51:03;12.95;;;9.48;;
42124;SDS011;27787;44.594;11.046;2023-08-17T10:53:48;11.80;;;9.18;;
42124;SDS011;27787;44.594;11.046;2023-08-17T10:56:36;13.35;;;9.10;;
42124;SDS011;27787;44.594;11.046;2023-08-17T10:59:24;11.27;;;8.80;;
42124;SDS011;27787;44.594;11.046;2023-08-17T11:02:09;12.82;;;9.20;;
42124;SDS011;27787;44.594;11.046;2023-08-17T11:04:53;9.95;;;8.15;;
42124;SDS011;27787;44.594;11.046;2023-08-17T11:07:40;10.10;;;8.60;;
42124;SDS011;27787;44.594;11.046;2023-08-17T11:10:26;10.40;;;8.10;;
42124;SDS011;27787;44.594;11.046;2023-08-17T11:13:13;10.07;;;7.53;;
42124;SDS011;27787;44.594;11.046;2023-08-17T11:15:58;10.57;;;7.90;;
42124;SDS011;27787;44.594;11.046;2023-08-17T11:18:43;14.02;;;7.93;;
42124;SDS011;27787;44.594;11.046;2023-08-17T11:24:12;14.68;;;8.68;;
42124;SDS011;27787;44.594;11.046;2023-08-17T11:26:56;10.32;;;8.25;;
42124;SDS011;27787;44.594;11.046;2023-08-17T11:29:40;11.17;;;7.43;;
42124;SDS011;27787;44.594;11.046;2023-08-17T11:32:24;10.32;;;7.15;;
42124;SDS011;27787;44.594;11.046;2023-08-17T11:35:09;11.52;;;7.47;;
42124;SDS011;27787;44.594;11.046;2023-08-17T11:37:53;12.55;;;8.07;;
42124;SDS011;27787;44.594;11.046;2023-08-17T11:40:37;8.82;;;7.88;;
42124;SDS011;27787;44.594;11.046;2023-08-17T11:43:21;9.45;;;7.72;;
42124;SDS011;27787;44.594;11.046;2023-08-17T11:46:06;9.13;;;7.30;;
42124;SDS011;27787;44.594;11.046;2023-08-17T11:48:50;12.10;;;8.85;;
42124;SDS011;27787;44.594;11.046;2023-08-17T11:51:37;11.07;;;8.65;;
42124;SDS011;27787;44.594;11.046;2023-08-17T11:54:21;10.40;;;8.30;;
42124;SDS011;27787;44.594;11.046;2023-08-17T11:57:06;16.23;;;9.70;;
42124;SDS011;27787;44.594;11.046;2023-08-17T11:59:57;11.50;;;8.60;;
42124;SDS011;27787;44.594;11.046;2023-08-17T12:02:42;8.65;;;7.75;;
42124;SDS011;27787;44.594;11.046;2023-08-17T12:08:13;9.70;;;8.43;;
42124;SDS011;27787;44.594;11.046;2023-08-17T12:11:00;10.32;;;9.07;;
42124;SDS011;27787;44.594;11.046;2023-08-17T12:13:49;9.57;;;8.13;;
42124;SDS011;27787;44.594;11.046;2023-08-17T12:16:34;11.40;;;8.55;;
42124;SDS011;27787;44.594;11.046;2023-08-17T12:19:19;11.07;;;8.10;;
42124;SDS011;27787;44.594;11.046;2023-08-17T12:22:04;9.07;;;7.93;;
42124;SDS011;27787;44.594;11.046;2023-08-17T12:24:48;10.40;;;8.30;;
42124;SDS011;27787;44.594;11.046;2023-08-17T12:27:32;10.10;;;8.63;;
42124;SDS011;27787;44.594;11.046;2023-08-17T12:30:29;9.40;;;7.97;;
42124;SDS011;27787;44.594;11.046;2023-08-17T12:33:16;10.98;;;8.63;;
42124;SDS011;27787;44.594;11.046;2023-08-17T12:35:59;9.90;;;8.13;;
42124;SDS011;27787;44.594;11.046;2023-08-17T12:38:43;10.33;;;8.13;;
42124;SDS011;27787;44.594;11.046;2023-08-17T12:44:12;9.02;;;8.02;;
42124;SDS011;27787;44.594;11.046;2023-08-17T12:49:41;10.55;;;9.38;;
42124;SDS011;27787;44.594;11.046;2023-08-17T12:52:25;13.73;;;9.00;;
42124;SDS011;27787;44.594;11.046;2023-08-17T12:55:09;10.15;;;8.48;;
42124;SDS011;27787;44.594;11.046;2023-08-17T12:57:54;9.73;;;8.07;;
42124;SDS011;27787;44.594;11.046;2023-08-17T13:00:38;10.18;;;8.40;;
42124;SDS011;27787;44.594;11.046;2023-08-17T13:03:21;10.17;;;8.37;;
42124;SDS011;27787;44.594;11.046;2023-08-17T13:06:06;11.07;;;7.97;;
42124;SDS011;27787;44.594;11.046;2023-08-17T13:08:51;11.55;;;8.02;;
42124;SDS011;27787;44.594;11.046;2023-08-17T13:11:35;10.73;;;7.17;;
42124;SDS011;27787;44.594;11.046;2023-08-17T13:14:19;11.48;;;8.30;;
42124;SDS011;27787;44.594;11.046;2023-08-17T13:17:04;10.50;;;8.25;;
42124;SDS011;27787;44.594;11.046;2023-08-17T13:19:48;8.73;;;7.70;;
42124;SDS011;27787;44.594;11.046;2023-08-17T13:22:32;8.88;;;7.35;;
42124;SDS011;27787;44.594;11.046;2023-08-17T13:25:16;11.30;;;7.90;;
42124;SDS011;27787;44.594;11.046;2023-08-17T13:28:00;10.48;;;7.88;;
42124;SDS011;27787;44.594;11.046;2023-08-17T13:30:45;8.73;;;7.82;;
42124;SDS011;27787;44.594;11.046;2023-08-17T13:33:30;9.32;;;7.50;;
42124;SDS011;27787;44.594;11.046;2023-08-17T13:36:14;11.90;;;7.47;;
42124;SDS011;27787;44.594;11.046;2023-08-17T13:38:58;11.70;;;7.87;;
42124;SDS011;27787;44.594;11.046;2023-08-17T13:41:42;9.43;;;7.50;;
42124;SDS011;27787;44.594;11.046;2023-08-17T13:47:55;8.65;;;7.53;;
42124;SDS011;27787;44.594;11.046;2023-08-17T13:50:39;12.70;;;8.15;;
42124;SDS011;27787;44.594;11.046;2023-08-17T13:53:23;10.20;;;8.07;;
42124;SDS011;27787;44.594;11.046;2023-08-17T13:56:09;10.45;;;7.78;;
42124;SDS011;27787;44.594;11.046;2023-08-17T13:58:54;14.90;;;8.20;;
42124;SDS011;27787;44.594;11.046;2023-08-17T14:01:38;11.30;;;7.70;;
42124;SDS011;27787;44.594;11.046;2023-08-17T14:04:22;13.32;;;8.73;;
42124;SDS011;27787;44.594;11.046;2023-08-17T14:07:06;9.60;;;7.80;;
42124;SDS011;27787;44.594;11.046;2023-08-17T14:09:50;9.43;;;7.73;;
42124;SDS011;27787;44.594;11.046;2023-08-17T14:12:34;9.03;;;7.63;;
42124;SDS011;27787;44.594;11.046;2023-08-17T14:15:20;9.68;;;8.40;;
42124;SDS011;27787;44.594;11.046;2023-08-17T14:18:06;13.80;;;7.95;;
42124;SDS011;27787;44.594;11.046;2023-08-17T14:20:50;11.00;;;7.63;;
42124;SDS011;27787;44.594;11.046;2023-08-17T14:23:34;10.90;;;8.43;;
42124;SDS011;27787;44.594;11.046;2023-08-17T14:26:18;11.77;;;8.27;;
42124;SDS011;27787;44.594;11.046;2023-08-17T14:29:02;11.63;;;7.87;;
42124;SDS011;27787;44.594;11.046;2023-08-17T14:31:46;11.05;;;7.88;;
42124;SDS011;27787;44.594;11.046;2023-08-17T14:34:31;10.23;;;7.72;;
42124;SDS011;27787;44.594;11.046;2023-08-17T14:37:15;11.33;;;7.50;;
42124;SDS011;27787;44.594;11.046;2023-08-17T14:40:00;11.13;;;7.47;;
42124;SDS011;27787;44.594;11.046;2023-08-17T14:42:44;10.13;;;8.27;;
42124;SDS011;27787;44.594;11.046;2023-08-17T14:45:28;11.73;;;7.78;;
42124;SDS011;27787;44.594;11.046;2023-08-17T14:48:12;14.73;;;7.77;;
42124;SDS011;27787;44.594;11.046;2023-08-17T14:50:56;10.70;;;7.90;;
42124;SDS011;27787;44.594;11.046;2023-08-17T14:53:40;13.05;;;7.72;;
42124;SDS011;27787;44.594;11.046;2023-08-17T14:56:25;11.32;;;8.32;;
42124;SDS011;27787;44.594;11.046;2023-08-17T14:59:10;8.45;;;7.53;;
42124;SDS011;27787;44.594;11.046;2023-08-17T15:01:54;14.55;;;8.15;;
42124;SDS011;27787;44.594;11.046;2023-08-17T15:04:40;11.25;;;7.40;;
42124;SDS011;27787;44.594;11.046;2023-08-17T15:07:24;15.57;;;8.13;;
42124;SDS011;27787;44.594;11.046;2023-08-17T15:10:08;11.88;;;7.90;;
42124;SDS011;27787;44.594;11.046;2023-08-17T15:12:52;10.65;;;7.90;;
42124;SDS011;27787;44.594;11.046;2023-08-17T15:15:36;11.20;;;8.23;;
42124;SDS011;27787;44.594;11.046;2023-08-17T15:18:21;12.70;;;8.02;;
42124;SDS011;27787;44.594;11.046;2023-08-17T15:21:05;11.68;;;7.75;;
42124;SDS011;27787;44.594;11.046;2023-08-17T15:23:49;12.70;;;7.95;;
42124;SDS011;27787;44.594;11.046;2023-08-17T15:26:33;12.82;;;8.13;;
42124;SDS011;27787;44.594;11.046;2023-08-17T15:29:17;15.37;;;8.17;;
42124;SDS011;27787;44.594;11.046;2023-08-17T15:32:02;13.38;;;8.55;;
42124;SDS011;27787;44.594;11.046;2023-08-17T15:34:46;11.60;;;8.67;;
42124;SDS011;27787;44.594;11.046;2023-08-17T15:37:30;13.70;;;9.43;;
42124;SDS011;27787;44.594;11.046;2023-08-17T15:40:14;10.25;;;9.20;;
42124;SDS011;27787;44.594;11.046;2023-08-17T15:42:58;10.43;;;8.82;;
42124;SDS011;27787;44.594;11.046;2023-08-17T15:45:42;10.30;;;8.10;;
42124;SDS011;27787;44.594;11.046;2023-08-17T15:48:27;14.15;;;8.40;;
42124;SDS011;27787;44.594;11.046;2023-08-17T15:53:55;11.52;;;8.43;;
42124;SDS011;27787;44.594;11.046;2023-08-17T15:56:40;11.38;;;8.60;;
42124;SDS011;27787;44.594;11.046;2023-08-17T15:59:23;11.82;;;8.60;;
42124;SDS011;27787;44.594;11.046;2023-08-17T16:02:08;13.98;;;9.18;;
42124;SDS011;27787;44.594;11.046;2023-08-17T16:04:52;22.33;;;9.23;;
42124;SDS011;27787;44.594;11.046;2023-08-17T16:07:36;11.98;;;8.35;;
42124;SDS011;27787;44.594;11.046;2023-08-17T16:10:20;9.77;;;8.15;;
42124;SDS011;27787;44.594;11.046;2023-08-17T16:13:04;11.32;;;8.75;;
42124;SDS011;27787;44.594;11.046;2023-08-17T16:15:48;12.40;;;8.57;;
42124;SDS011;27787;44.594;11.046;2023-08-17T16:18:33;10.90;;;8.35;;
42124;SDS011;27787;44.594;11.046;2023-08-17T16:21:17;13.97;;;8.63;;
42124;SDS011;27787;44.594;11.046;2023-08-17T16:24:01;13.75;;;8.60;;
42124;SDS011;27787;44.594;11.046;2023-08-17T16:26:44;11.70;;;9.02;;
42124;SDS011;27787;44.594;11.046;2023-08-17T16:29:29;20.48;;;9.32;;